sensor_id;sensor_type;location;lat;lon;timestamp;temperature;humidity
9971;DHT22;5026;51.494;11.974;2023-09-30T00:01:44;17.30;99.90
9971;DHT22;5026;51.494;11.974;2023-09-30T00:04:11;17.30;99.90
9971;DHT22;5026;51.494;11.974;2023-09-30T00:06:38;17.20;99.90
9971;DHT22;5026;51.494;11.974;2023-09-30T00:09:05;17.20;99.90
9971;DHT22;5026;51.494;11.974;2023-09-30T00:11:33;17.30;99.90
9971;DHT22;5026;51.494;11.974;2023-09-30T00:14:00;17.30;99.90
9971;DHT22;5026;51.494;11.974;2023-09-30T00:16:28;17.20;99.90
9971;DHT22;5026;51.494;11.974;2023-09-30T00:18:56;17.20;99.90
9971;DHT22;5026;51.494;11.974;2023-09-30T00:21:24;17.20;99.90
9971;DHT22;5026;51.494;11.974;2023-09-30T00:23:51;17.20;99.90
9971;DHT22;5026;51.494;11.974;2023-09-30T00:26:18;17.20;99.90
9971;DHT22;5026;51.494;11.974;2023-09-30T00:28:44;17.00;99.90
9971;DHT22;5026;51.494;11.974;2023-09-30T00:31:11;17.00;99.90
9971;DHT22;5026;51.494;11.974;2023-09-30T00:33:40;17.00;99.90
9971;DHT22;5026;51.494;11.974;2023-09-30T00:36:08;16.90;99.90
9971;DHT22;5026;51.494;11.974;2023-09-30T00:38:35;16.80;99.90
9971;DHT22;5026;51.494;11.974;2023-09-30T00:41:02;16.80;99.90
9971;DHT22;5026;51.494;11.974;2023-09-30T00:43:29;16.70;99.90
9971;DHT22;5026;51.494;11.974;2023-09-30T00:46:02;16.50;99.90
9971;DHT22;5026;51.494;11.974;2023-09-30T00:48:32;16.40;99.90
9971;DHT22;5026;51.494;11.974;2023-09-30T00:51:00;16.30;99.90
9971;DHT22;5026;51.494;11.974;2023-09-30T00:53:28;16.20;99.90
9971;DHT22;5026;51.494;11.974;2023-09-30T00:55:56;16.00;99.90
9971;DHT22;5026;51.494;11.974;2023-09-30T00:58:24;16.00;99.90
9971;DHT22;5026;51.494;11.974;2023-09-30T01:00:54;15.90;99.90
9971;DHT22;5026;51.494;11.974;2023-09-30T01:03:22;15.80;99.90
9971;DHT22;5026;51.494;11.974;2023-09-30T01:05:49;15.80;99.90
9971;DHT22;5026;51.494;11.974;2023-09-30T01:08:18;15.70;99.90
9971;DHT22;5026;51.494;11.974;2023-09-30T01:10:47;15.70;99.90
9971;DHT22;5026;51.494;11.974;2023-09-30T01:13:14;15.70;99.90
9971;DHT22;5026;51.494;11.974;2023-09-30T01:15:41;15.70;99.90
9971;DHT22;5026;51.494;11.974;2023-09-30T01:18:08;15.70;99.90
9971;DHT22;5026;51.494;11.974;2023-09-30T01:20:35;15.60;99.90
9971;DHT22;5026;51.494;11.974;2023-09-30T01:23:04;15.70;99.90
9971;DHT22;5026;51.494;11.974;2023-09-30T01:25:31;15.60;99.90
9971;DHT22;5026;51.494;11.974;2023-09-30T01:27:58;15.60;99.90
9971;DHT22;5026;51.494;11.974;2023-09-30T01:30:32;15.50;99.90
9971;DHT22;5026;51.494;11.974;2023-09-30T01:32:59;15.40;99.90
9971;DHT22;5026;51.494;11.974;2023-09-30T01:35:26;15.40;99.90
9971;DHT22;5026;51.494;11.974;2023-09-30T01:37:53;15.30;99.90
9971;DHT22;5026;51.494;11.974;2023-09-30T01:40:21;15.30;99.90
9971;DHT22;5026;51.494;11.974;2023-09-30T01:42:49;15.30;99.90
9971;DHT22;5026;51.494;11.974;2023-09-30T01:45:16;15.20;99.90
9971;DHT22;5026;51.494;11.974;2023-09-30T01:47:43;15.10;99.90
9971;DHT22;5026;51.494;11.974;2023-09-30T01:50:10;15.00;99.90
9971;DHT22;5026;51.494;11.974;2023-09-30T01:52:37;15.00;99.90
9971;DHT22;5026;51.494;11.974;2023-09-30T01:55:04;14.90;99.90
9971;DHT22;5026;51.494;11.974;2023-09-30T01:57:33;14.80;99.90
9971;DHT22;5026;51.494;11.974;2023-09-30T02:00:00;14.80;99.90
9971;DHT22;5026;51.494;11.974;2023-09-30T02:02:27;14.70;99.90
9971;DHT22;5026;51.494;11.974;2023-09-30T02:04:54;14.70;99.90
9971;DHT22;5026;51.494;11.974;2023-09-30T02:07:21;14.70;99.90
9971;DHT22;5026;51.494;11.974;2023-09-30T02:09:48;14.70;99.90
9971;DHT22;5026;51.494;11.974;2023-09-30T02:12:15;14.60;99.90
9971;DHT22;5026;51.494;11.974;2023-09-30T02:14:43;14.60;99.90
9971;DHT22;5026;51.494;11.974;2023-09-30T02:17:12;14.50;99.90
9971;DHT22;5026;51.494;11.974;2023-09-30T02:19:38;14.50;99.90
9971;DHT22;5026;51.494;11.974;2023-09-30T02:22:06;14.50;99.90
9971;DHT22;5026;51.494;11.974;2023-09-30T02:24:33;14.40;99.90
9971;DHT22;5026;51.494;11.974;2023-09-30T02:27:00;14.30;99.90
9971;DHT22;5026;51.494;11.974;2023-09-30T02:29:26;14.30;99.90
9971;DHT22;5026;51.494;11.974;2023-09-30T02:31:55;14.20;99.90
9971;DHT22;5026;51.494;11.974;2023-09-30T02:34:22;14.10;99.90
9971;DHT22;5026;51.494;11.974;2023-09-30T02:36:49;14.10;99.90
9971;DHT22;5026;51.494;11.974;2023-09-30T02:39:17;14.00;99.90
9971;DHT22;5026;51.494;11.974;2023-09-30T02:41:44;13.90;99.90
9971;DHT22;5026;51.494;11.974;2023-09-30T02:44:11;13.90;99.90
9971;DHT22;5026;51.494;11.974;2023-09-30T02:46:38;13.90;99.90
9971;DHT22;5026;51.494;11.974;2023-09-30T02:49:06;13.90;99.90
9971;DHT22;5026;51.494;11.974;2023-09-30T02:51:33;13.90;99.90
9971;DHT22;5026;51.494;11.974;2023-09-30T02:54:00;13.80;99.90
9971;DHT22;5026;51.494;11.974;2023-09-30T02:56:27;13.80;99.90
9971;DHT22;5026;51.494;11.974;2023-09-30T02:58:56;13.70;99.90
9971;DHT22;5026;51.494;11.974;2023-09-30T03:01:23;13.70;99.90
9971;DHT22;5026;51.494;11.974;2023-09-30T03:03:50;13.80;99.90
9971;DHT22;5026;51.494;11.974;2023-09-30T03:06:18;13.70;99.90
9971;DHT22;5026;51.494;11.974;2023-09-30T03:08:45;13.70;99.90
9971;DHT22;5026;51.494;11.974;2023-09-30T03:11:12;13.70;99.90
9971;DHT22;5026;51.494;11.974;2023-09-30T03:13:39;13.60;99.90
9971;DHT22;5026;51.494;11.974;2023-09-30T03:16:07;13.60;99.90
9971;DHT22;5026;51.494;11.974;2023-09-30T03:18:34;13.50;99.90
9971;DHT22;5026;51.494;11.974;2023-09-30T03:21:02;13.50;99.90
9971;DHT22;5026;51.494;11.974;2023-09-30T03:23:35;13.40;99.90
9971;DHT22;5026;51.494;11.974;2023-09-30T03:26:04;13.40;99.90
9971;DHT22;5026;51.494;11.974;2023-09-30T03:28:35;13.30;99.90
9971;DHT22;5026;51.494;11.974;2023-09-30T03:31:02;13.30;99.90
9971;DHT22;5026;51.494;11.974;2023-09-30T03:33:30;13.30;99.90
9971;DHT22;5026;51.494;11.974;2023-09-30T03:35:56;13.30;99.90
9971;DHT22;5026;51.494;11.974;2023-09-30T03:38:23;13.30;99.90
9971;DHT22;5026;51.494;11.974;2023-09-30T03:40:52;13.30;99.90
9971;DHT22;5026;51.494;11.974;2023-09-30T03:43:20;13.30;99.90
9971;DHT22;5026;51.494;11.974;2023-09-30T03:45:48;13.20;99.90
9971;DHT22;5026;51.494;11.974;2023-09-30T03:48:15;13.20;99.90
9971;DHT22;5026;51.494;11.974;2023-09-30T03:50:44;13.20;99.90
9971;DHT22;5026;51.494;11.974;2023-09-30T03:53:11;13.20;99.90
9971;DHT22;5026;51.494;11.974;2023-09-30T03:55:38;13.20;99.90
9971;DHT22;5026;51.494;11.974;2023-09-30T03:58:07;13.20;99.90
9971;DHT22;5026;51.494;11.974;2023-09-30T04:00:34;13.20;99.90
9971;DHT22;5026;51.494;11.974;2023-09-30T04:03:01;13.20;99.90
9971;DHT22;5026;51.494;11.974;2023-09-30T04:05:28;13.20;99.90
9971;DHT22;5026;51.494;11.974;2023-09-30T04:07:57;13.20;99.90
9971;DHT22;5026;51.494;11.974;2023-09-30T04:10:24;13.20;99.90
9971;DHT22;5026;51.494;11.974;2023-09-30T04:12:51;13.20;99.90
9971;DHT22;5026;51.494;11.974;2023-09-30T04:15:20;13.10;99.90
9971;DHT22;5026;51.494;11.974;2023-09-30T04:17:48;13.10;99.90
9971;DHT22;5026;51.494;11.974;2023-09-30T04:20:15;13.10;99.90
9971;DHT22;5026;51.494;11.974;2023-09-30T04:22:49;13.10;99.90
9971;DHT22;5026;51.494;11.974;2023-09-30T04:25:16;13.10;99.90
9971;DHT22;5026;51.494;11.974;2023-09-30T04:27:43;13.10;99.90
9971;DHT22;5026;51.494;11.974;2023-09-30T04:30:13;13.10;99.90
9971;DHT22;5026;51.494;11.974;2023-09-30T04:32:42;13.00;99.90
9971;DHT22;5026;51.494;11.974;2023-09-30T04:35:09;13.10;99.90
9971;DHT22;5026;51.494;11.974;2023-09-30T04:37:37;13.10;99.90
9971;DHT22;5026;51.494;11.974;2023-09-30T04:40:06;13.10;99.90
9971;DHT22;5026;51.494;11.974;2023-09-30T04:42:41;13.00;99.90
9971;DHT22;5026;51.494;11.974;2023-09-30T04:45:10;13.20;99.90
9971;DHT22;5026;51.494;11.974;2023-09-30T04:47:38;13.10;99.90
9971;DHT22;5026;51.494;11.974;2023-09-30T04:50:08;13.00;99.90
9971;DHT22;5026;51.494;11.974;2023-09-30T04:52:35;13.00;99.90
9971;DHT22;5026;51.494;11.974;2023-09-30T04:55:02;13.00;99.90
9971;DHT22;5026;51.494;11.974;2023-09-30T04:57:30;12.90;99.90
9971;DHT22;5026;51.494;11.974;2023-09-30T04:59:57;12.90;99.90
9971;DHT22;5026;51.494;11.974;2023-09-30T05:02:26;12.90;99.90
9971;DHT22;5026;51.494;11.974;2023-09-30T05:04:53;12.80;99.90
9971;DHT22;5026;51.494;11.974;2023-09-30T05:07:21;12.90;99.90
9971;DHT22;5026;51.494;11.974;2023-09-30T05:09:48;12.90;99.90
9971;DHT22;5026;51.494;11.974;2023-09-30T05:12:15;12.90;99.90
9971;DHT22;5026;51.494;11.974;2023-09-30T05:14:42;12.90;99.90
9971;DHT22;5026;51.494;11.974;2023-09-30T05:17:10;12.90;99.90
9971;DHT22;5026;51.494;11.974;2023-09-30T05:19:37;13.00;99.90
9971;DHT22;5026;51.494;11.974;2023-09-30T05:22:04;13.00;99.90
9971;DHT22;5026;51.494;11.974;2023-09-30T05:24:33;13.10;99.90
9971;DHT22;5026;51.494;11.974;2023-09-30T05:27:00;13.00;99.90
9971;DHT22;5026;51.494;11.974;2023-09-30T05:29:28;13.00;99.90
9971;DHT22;5026;51.494;11.974;2023-09-30T05:31:55;12.90;99.90
9971;DHT22;5026;51.494;11.974;2023-09-30T05:34:22;12.90;99.90
9971;DHT22;5026;51.494;11.974;2023-09-30T05:36:49;12.90;99.90
9971;DHT22;5026;51.494;11.974;2023-09-30T05:39:16;12.90;99.90
9971;DHT22;5026;51.494;11.974;2023-09-30T05:41:46;12.90;99.90
9971;DHT22;5026;51.494;11.974;2023-09-30T05:44:13;12.90;99.90
9971;DHT22;5026;51.494;11.974;2023-09-30T05:46:40;13.00;99.90
9971;DHT22;5026;51.494;11.974;2023-09-30T05:49:08;12.90;99.90
9971;DHT22;5026;51.494;11.974;2023-09-30T05:51:39;13.00;99.90
9971;DHT22;5026;51.494;11.974;2023-09-30T05:54:06;13.00;99.90
9971;DHT22;5026;51.494;11.974;2023-09-30T05:56:35;13.10;99.90
9971;DHT22;5026;51.494;11.974;2023-09-30T05:59:04;13.20;99.90
9971;DHT22;5026;51.494;11.974;2023-09-30T06:01:32;13.20;99.90
9971;DHT22;5026;51.494;11.974;2023-09-30T06:03:59;13.30;99.90
9971;DHT22;5026;51.494;11.974;2023-09-30T06:06:26;13.40;99.90
9971;DHT22;5026;51.494;11.974;2023-09-30T06:08:55;13.60;99.90
9971;DHT22;5026;51.494;11.974;2023-09-30T06:11:23;13.80;99.90
9971;DHT22;5026;51.494;11.974;2023-09-30T06:13:51;14.10;99.90
9971;DHT22;5026;51.494;11.974;2023-09-30T06:16:20;14.40;99.90
9971;DHT22;5026;51.494;11.974;2023-09-30T06:18:47;14.70;99.90
9971;DHT22;5026;51.494;11.974;2023-09-30T06:21:14;15.10;99.90
9971;DHT22;5026;51.494;11.974;2023-09-30T06:23:43;15.40;99.90
9971;DHT22;5026;51.494;11.974;2023-09-30T06:26:10;15.70;99.90
9971;DHT22;5026;51.494;11.974;2023-09-30T06:28:37;15.80;99.90
9971;DHT22;5026;51.494;11.974;2023-09-30T06:31:06;15.90;99.90
9971;DHT22;5026;51.494;11.974;2023-09-30T06:33:35;16.00;99.90
9971;DHT22;5026;51.494;11.974;2023-09-30T06:36:02;16.20;99.90
9971;DHT22;5026;51.494;11.974;2023-09-30T06:38:29;16.10;99.90
9971;DHT22;5026;51.494;11.974;2023-09-30T06:40:56;16.10;99.90
9971;DHT22;5026;51.494;11.974;2023-09-30T06:43:23;16.00;99.90
9971;DHT22;5026;51.494;11.974;2023-09-30T06:45:50;16.00;99.90
9971;DHT22;5026;51.494;11.974;2023-09-30T06:48:17;15.90;99.90
9971;DHT22;5026;51.494;11.974;2023-09-30T06:50:45;16.10;99.90
9971;DHT22;5026;51.494;11.974;2023-09-30T06:53:14;16.30;99.90
9971;DHT22;5026;51.494;11.974;2023-09-30T06:55:41;16.60;99.90
9971;DHT22;5026;51.494;11.974;2023-09-30T06:58:09;16.70;99.90
9971;DHT22;5026;51.494;11.974;2023-09-30T07:00:36;16.80;99.90
9971;DHT22;5026;51.494;11.974;2023-09-30T07:03:04;17.00;99.90
9971;DHT22;5026;51.494;11.974;2023-09-30T07:05:31;17.20;99.90
9971;DHT22;5026;51.494;11.974;2023-09-30T07:07:59;17.30;99.90
9971;DHT22;5026;51.494;11.974;2023-09-30T07:10:27;17.30;99.90
9971;DHT22;5026;51.494;11.974;2023-09-30T07:12:54;17.40;99.90
9971;DHT22;5026;51.494;11.974;2023-09-30T07:15:22;17.50;99.90
9971;DHT22;5026;51.494;11.974;2023-09-30T07:17:48;17.80;99.90
9971;DHT22;5026;51.494;11.974;2023-09-30T07:20:15;18.20;99.90
9971;DHT22;5026;51.494;11.974;2023-09-30T07:22:43;18.60;99.90
9971;DHT22;5026;51.494;11.974;2023-09-30T07:25:11;18.90;99.90
9971;DHT22;5026;51.494;11.974;2023-09-30T07:27:40;19.30;99.90
9971;DHT22;5026;51.494;11.974;2023-09-30T07:30:08;20.60;99.90
9971;DHT22;5026;51.494;11.974;2023-09-30T07:32:35;21.00;99.60
9971;DHT22;5026;51.494;11.974;2023-09-30T07:35:02;21.70;99.20
9971;DHT22;5026;51.494;11.974;2023-09-30T07:37:29;22.80;98.20
9971;DHT22;5026;51.494;11.974;2023-09-30T07:39:56;23.20;97.00
9971;DHT22;5026;51.494;11.974;2023-09-30T07:42:24;22.60;96.50
9971;DHT22;5026;51.494;11.974;2023-09-30T07:44:51;21.90;96.70
9971;DHT22;5026;51.494;11.974;2023-09-30T07:47:18;21.40;97.00
9971;DHT22;5026;51.494;11.974;2023-09-30T07:49:45;20.90;97.30
9971;DHT22;5026;51.494;11.974;2023-09-30T07:52:12;20.70;97.70
9971;DHT22;5026;51.494;11.974;2023-09-30T07:54:39;20.70;97.80
9971;DHT22;5026;51.494;11.974;2023-09-30T07:57:06;20.60;98.00
9971;DHT22;5026;51.494;11.974;2023-09-30T07:59:35;20.90;97.90
9971;DHT22;5026;51.494;11.974;2023-09-30T08:02:01;22.00;97.40
9971;DHT22;5026;51.494;11.974;2023-09-30T08:04:30;24.80;96.50
9971;DHT22;5026;51.494;11.974;2023-09-30T08:06:57;25.60;94.40
9971;DHT22;5026;51.494;11.974;2023-09-30T08:09:24;24.60;93.90
9971;DHT22;5026;51.494;11.974;2023-09-30T08:11:53;27.50;93.10
9971;DHT22;5026;51.494;11.974;2023-09-30T08:14:21;30.30;89.40
9971;DHT22;5026;51.494;11.974;2023-09-30T08:16:49;32.00;81.10
9971;DHT22;5026;51.494;11.974;2023-09-30T08:19:16;32.10;77.10
9971;DHT22;5026;51.494;11.974;2023-09-30T08:21:46;33.60;74.00
9971;DHT22;5026;51.494;11.974;2023-09-30T08:24:13;34.20;70.60
9971;DHT22;5026;51.494;11.974;2023-09-30T08:26:40;34.10;69.00
9971;DHT22;5026;51.494;11.974;2023-09-30T08:29:07;34.50;68.00
9971;DHT22;5026;51.494;11.974;2023-09-30T08:31:33;34.80;66.70
9971;DHT22;5026;51.494;11.974;2023-09-30T08:34:02;34.70;66.10
9971;DHT22;5026;51.494;11.974;2023-09-30T08:36:30;34.80;65.40
9971;DHT22;5026;51.494;11.974;2023-09-30T08:38:57;34.80;64.90
9971;DHT22;5026;51.494;11.974;2023-09-30T08:41:31;34.80;64.30
9971;DHT22;5026;51.494;11.974;2023-09-30T08:44:00;34.60;64.60
9971;DHT22;5026;51.494;11.974;2023-09-30T08:46:30;34.20;64.70
9971;DHT22;5026;51.494;11.974;2023-09-30T08:49:02;34.00;64.30
9971;DHT22;5026;51.494;11.974;2023-09-30T08:51:30;33.60;64.10
9971;DHT22;5026;51.494;11.974;2023-09-30T08:53:58;32.60;63.50
9971;DHT22;5026;51.494;11.974;2023-09-30T08:56:28;30.60;64.10
9971;DHT22;5026;51.494;11.974;2023-09-30T08:58:57;28.20;65.30
9971;DHT22;5026;51.494;11.974;2023-09-30T09:01:24;27.00;67.40
9971;DHT22;5026;51.494;11.974;2023-09-30T09:03:52;26.10;68.60
9971;DHT22;5026;51.494;11.974;2023-09-30T09:06:21;25.50;70.10
9971;DHT22;5026;51.494;11.974;2023-09-30T09:08:48;25.80;70.90
9971;DHT22;5026;51.494;11.974;2023-09-30T09:11:15;26.30;71.10
9971;DHT22;5026;51.494;11.974;2023-09-30T09:13:46;26.70;70.70
9971;DHT22;5026;51.494;11.974;2023-09-30T09:16:15;26.90;70.60
9971;DHT22;5026;51.494;11.974;2023-09-30T09:18:43;26.70;70.10
9971;DHT22;5026;51.494;11.974;2023-09-30T09:21:11;26.70;70.90
9971;DHT22;5026;51.494;11.974;2023-09-30T09:23:44;26.60;70.60
9971;DHT22;5026;51.494;11.974;2023-09-30T09:26:11;26.60;70.90
9971;DHT22;5026;51.494;11.974;2023-09-30T09:28:39;26.20;71.30
9971;DHT22;5026;51.494;11.974;2023-09-30T09:31:25;26.00;71.50
9971;DHT22;5026;51.494;11.974;2023-09-30T09:33:52;25.90;72.20
9971;DHT22;5026;51.494;11.974;2023-09-30T09:36:20;25.60;71.80
9971;DHT22;5026;51.494;11.974;2023-09-30T09:38:49;25.10;72.80
9971;DHT22;5026;51.494;11.974;2023-09-30T09:41:19;24.90;73.40
9971;DHT22;5026;51.494;11.974;2023-09-30T09:43:48;24.90;73.80
9971;DHT22;5026;51.494;11.974;2023-09-30T09:46:17;24.90;73.70
9971;DHT22;5026;51.494;11.974;2023-09-30T09:48:45;25.10;73.30
9971;DHT22;5026;51.494;11.974;2023-09-30T09:51:13;24.60;73.30
9971;DHT22;5026;51.494;11.974;2023-09-30T09:53:41;24.40;73.30
9971;DHT22;5026;51.494;11.974;2023-09-30T09:56:11;24.40;73.70
9971;DHT22;5026;51.494;11.974;2023-09-30T09:58:40;24.40;73.80
9971;DHT22;5026;51.494;11.974;2023-09-30T10:01:10;24.30;73.20
9971;DHT22;5026;51.494;11.974;2023-09-30T10:03:38;24.10;71.70
9971;DHT22;5026;51.494;11.974;2023-09-30T10:06:05;23.90;72.70
9971;DHT22;5026;51.494;11.974;2023-09-30T10:08:37;23.60;73.30
9971;DHT22;5026;51.494;11.974;2023-09-30T10:11:06;23.20;73.50
9971;DHT22;5026;51.494;11.974;2023-09-30T10:13:53;22.90;74.10
9971;DHT22;5026;51.494;11.974;2023-09-30T10:16:49;22.80;75.40
9971;DHT22;5026;51.494;11.974;2023-09-30T10:19:20;22.80;74.50
9971;DHT22;5026;51.494;11.974;2023-09-30T10:22:19;22.70;74.00
9971;DHT22;5026;51.494;11.974;2023-09-30T10:24:47;22.60;73.70
9971;DHT22;5026;51.494;11.974;2023-09-30T10:27:31;22.50;74.10
9971;DHT22;5026;51.494;11.974;2023-09-30T10:30:08;22.20;74.10
9971;DHT22;5026;51.494;11.974;2023-09-30T10:33:12;22.00;74.20
9971;DHT22;5026;51.494;11.974;2023-09-30T10:35:47;21.80;73.60
9971;DHT22;5026;51.494;11.974;2023-09-30T10:38:39;21.60;73.70
9971;DHT22;5026;51.494;11.974;2023-09-30T10:41:09;21.40;75.10
9971;DHT22;5026;51.494;11.974;2023-09-30T10:43:39;21.20;74.90
9971;DHT22;5026;51.494;11.974;2023-09-30T10:46:29;20.90;74.80
9971;DHT22;5026;51.494;11.974;2023-09-30T10:48:56;20.80;75.20
9971;DHT22;5026;51.494;11.974;2023-09-30T10:51:24;20.70;75.50
9971;DHT22;5026;51.494;11.974;2023-09-30T10:53:52;20.60;75.90
9971;DHT22;5026;51.494;11.974;2023-09-30T10:56:23;20.70;76.50
9971;DHT22;5026;51.494;11.974;2023-09-30T10:58:51;20.70;76.60
9971;DHT22;5026;51.494;11.974;2023-09-30T11:01:20;20.80;76.90
9971;DHT22;5026;51.494;11.974;2023-09-30T11:03:48;20.80;76.90
9971;DHT22;5026;51.494;11.974;2023-09-30T11:06:19;20.90;76.90
9971;DHT22;5026;51.494;11.974;2023-09-30T11:08:51;20.70;77.10
9971;DHT22;5026;51.494;11.974;2023-09-30T11:11:19;20.70;77.10
9971;DHT22;5026;51.494;11.974;2023-09-30T11:13:46;20.50;77.00
9971;DHT22;5026;51.494;11.974;2023-09-30T11:16:13;20.60;78.20
9971;DHT22;5026;51.494;11.974;2023-09-30T11:18:42;20.60;77.80
9971;DHT22;5026;51.494;11.974;2023-09-30T11:21:10;20.60;77.00
9971;DHT22;5026;51.494;11.974;2023-09-30T11:23:39;20.60;77.40
9971;DHT22;5026;51.494;11.974;2023-09-30T11:26:07;20.60;77.60
9971;DHT22;5026;51.494;11.974;2023-09-30T11:28:39;20.40;77.80
9971;DHT22;5026;51.494;11.974;2023-09-30T11:31:09;20.50;78.80
9971;DHT22;5026;51.494;11.974;2023-09-30T11:33:56;20.80;79.50
9971;DHT22;5026;51.494;11.974;2023-09-30T11:36:26;21.10;78.00
9971;DHT22;5026;51.494;11.974;2023-09-30T11:38:53;21.10;77.40
9971;DHT22;5026;51.494;11.974;2023-09-30T11:41:20;21.00;77.70
9971;DHT22;5026;51.494;11.974;2023-09-30T11:44:06;21.00;77.50
9971;DHT22;5026;51.494;11.974;2023-09-30T11:46:47;20.90;77.80
9971;DHT22;5026;51.494;11.974;2023-09-30T11:49:28;20.90;77.90
9971;DHT22;5026;51.494;11.974;2023-09-30T11:51:55;20.80;78.00
9971;DHT22;5026;51.494;11.974;2023-09-30T11:54:28;20.80;77.80
9971;DHT22;5026;51.494;11.974;2023-09-30T11:56:56;20.90;78.10
9971;DHT22;5026;51.494;11.974;2023-09-30T11:59:24;20.90;78.40
9971;DHT22;5026;51.494;11.974;2023-09-30T12:01:51;20.90;77.70
9971;DHT22;5026;51.494;11.974;2023-09-30T12:04:18;20.70;77.60
9971;DHT22;5026;51.494;11.974;2023-09-30T12:06:47;20.50;78.00
9971;DHT22;5026;51.494;11.974;2023-09-30T12:09:15;20.40;78.10
9971;DHT22;5026;51.494;11.974;2023-09-30T12:11:42;20.20;78.60
9971;DHT22;5026;51.494;11.974;2023-09-30T12:14:10;19.90;78.70
9971;DHT22;5026;51.494;11.974;2023-09-30T12:16:38;19.90;78.70
9971;DHT22;5026;51.494;11.974;2023-09-30T12:19:05;19.90;78.10
9971;DHT22;5026;51.494;11.974;2023-09-30T12:21:32;19.90;77.60
9971;DHT22;5026;51.494;11.974;2023-09-30T12:24:01;19.90;77.70
9971;DHT22;5026;51.494;11.974;2023-09-30T12:26:28;19.90;77.80
9971;DHT22;5026;51.494;11.974;2023-09-30T12:28:55;19.90;77.70
9971;DHT22;5026;51.494;11.974;2023-09-30T12:31:22;19.80;77.80
9971;DHT22;5026;51.494;11.974;2023-09-30T12:33:49;19.70;77.90
9971;DHT22;5026;51.494;11.974;2023-09-30T12:36:18;19.70;78.20
9971;DHT22;5026;51.494;11.974;2023-09-30T12:38:45;19.50;78.00
9971;DHT22;5026;51.494;11.974;2023-09-30T12:41:14;19.50;77.80
9971;DHT22;5026;51.494;11.974;2023-09-30T12:43:49;19.60;77.40
9971;DHT22;5026;51.494;11.974;2023-09-30T12:46:16;19.80;77.70
9971;DHT22;5026;51.494;11.974;2023-09-30T12:48:43;20.10;78.40
9971;DHT22;5026;51.494;11.974;2023-09-30T12:51:11;20.40;77.90
9971;DHT22;5026;51.494;11.974;2023-09-30T12:53:38;20.60;77.70
9971;DHT22;5026;51.494;11.974;2023-09-30T12:56:05;20.90;76.80
9971;DHT22;5026;51.494;11.974;2023-09-30T12:58:33;21.10;76.40
9971;DHT22;5026;51.494;11.974;2023-09-30T13:01:00;21.10;75.50
9971;DHT22;5026;51.494;11.974;2023-09-30T13:03:28;21.00;75.50
9971;DHT22;5026;51.494;11.974;2023-09-30T13:05:55;20.90;75.50
9971;DHT22;5026;51.494;11.974;2023-09-30T13:08:22;20.90;75.60
9971;DHT22;5026;51.494;11.974;2023-09-30T13:10:49;20.80;76.10
9971;DHT22;5026;51.494;11.974;2023-09-30T13:13:18;20.80;75.90
9971;DHT22;5026;51.494;11.974;2023-09-30T13:15:46;20.70;76.00
9971;DHT22;5026;51.494;11.974;2023-09-30T13:18:13;20.70;76.10
9971;DHT22;5026;51.494;11.974;2023-09-30T13:20:43;20.70;76.50
9971;DHT22;5026;51.494;11.974;2023-09-30T13:23:10;20.60;76.40
9971;DHT22;5026;51.494;11.974;2023-09-30T13:25:37;20.40;76.40
9971;DHT22;5026;51.494;11.974;2023-09-30T13:28:04;20.20;76.90
9971;DHT22;5026;51.494;11.974;2023-09-30T13:30:31;20.10;77.30
9971;DHT22;5026;51.494;11.974;2023-09-30T13:32:59;20.10;77.00
9971;DHT22;5026;51.494;11.974;2023-09-30T13:35:26;20.10;77.10
9971;DHT22;5026;51.494;11.974;2023-09-30T13:37:53;20.10;77.20
9971;DHT22;5026;51.494;11.974;2023-09-30T13:40:20;20.10;76.60
9971;DHT22;5026;51.494;11.974;2023-09-30T13:42:47;20.10;76.10
9971;DHT22;5026;51.494;11.974;2023-09-30T13:45:14;20.10;76.20
9971;DHT22;5026;51.494;11.974;2023-09-30T13:47:43;20.10;77.00
9971;DHT22;5026;51.494;11.974;2023-09-30T13:50:11;19.90;75.90
9971;DHT22;5026;51.494;11.974;2023-09-30T13:52:38;19.80;76.00
9971;DHT22;5026;51.494;11.974;2023-09-30T13:55:05;19.70;76.30
9971;DHT22;5026;51.494;11.974;2023-09-30T13:57:32;19.50;75.40
9971;DHT22;5026;51.494;11.974;2023-09-30T14:00:00;19.40;76.40
9971;DHT22;5026;51.494;11.974;2023-09-30T14:02:28;19.30;76.40
9971;DHT22;5026;51.494;11.974;2023-09-30T14:04:55;19.20;76.50
9971;DHT22;5026;51.494;11.974;2023-09-30T14:07:23;19.20;76.80
9971;DHT22;5026;51.494;11.974;2023-09-30T14:09:50;19.20;76.60
9971;DHT22;5026;51.494;11.974;2023-09-30T14:12:18;19.20;76.00
9971;DHT22;5026;51.494;11.974;2023-09-30T14:14:45;19.20;76.50
9971;DHT22;5026;51.494;11.974;2023-09-30T14:17:11;19.10;76.60
9971;DHT22;5026;51.494;11.974;2023-09-30T14:19:40;19.00;77.30
9971;DHT22;5026;51.494;11.974;2023-09-30T14:22:07;19.00;76.60
9971;DHT22;5026;51.494;11.974;2023-09-30T14:24:36;19.00;77.30
9971;DHT22;5026;51.494;11.974;2023-09-30T14:27:03;18.90;77.70
9971;DHT22;5026;51.494;11.974;2023-09-30T14:29:31;18.90;77.20
9971;DHT22;5026;51.494;11.974;2023-09-30T14:31:58;18.80;75.70
9971;DHT22;5026;51.494;11.974;2023-09-30T14:34:25;18.80;76.60
9971;DHT22;5026;51.494;11.974;2023-09-30T14:36:52;18.70;75.80
9971;DHT22;5026;51.494;11.974;2023-09-30T14:39:19;18.70;76.70
9971;DHT22;5026;51.494;11.974;2023-09-30T14:41:47;18.60;76.50
9971;DHT22;5026;51.494;11.974;2023-09-30T14:44:15;18.60;76.20
9971;DHT22;5026;51.494;11.974;2023-09-30T14:46:42;18.60;76.00
9971;DHT22;5026;51.494;11.974;2023-09-30T14:49:10;18.60;76.50
9971;DHT22;5026;51.494;11.974;2023-09-30T14:51:37;18.60;77.00
9971;DHT22;5026;51.494;11.974;2023-09-30T14:54:04;18.60;77.10
9971;DHT22;5026;51.494;11.974;2023-09-30T14:56:31;18.50;77.10
9971;DHT22;5026;51.494;11.974;2023-09-30T14:58:59;18.50;77.10
9971;DHT22;5026;51.494;11.974;2023-09-30T15:01:26;18.50;77.50
9971;DHT22;5026;51.494;11.974;2023-09-30T15:03:54;18.40;77.50
9971;DHT22;5026;51.494;11.974;2023-09-30T15:06:22;18.30;77.30
9971;DHT22;5026;51.494;11.974;2023-09-30T15:08:50;18.30;77.40
9971;DHT22;5026;51.494;11.974;2023-09-30T15:11:17;18.30;77.50
9971;DHT22;5026;51.494;11.974;2023-09-30T15:13:44;18.20;77.40
9971;DHT22;5026;51.494;11.974;2023-09-30T15:16:17;18.20;77.90
9971;DHT22;5026;51.494;11.974;2023-09-30T15:18:45;18.20;78.20
9971;DHT22;5026;51.494;11.974;2023-09-30T15:21:12;18.10;78.40
9971;DHT22;5026;51.494;11.974;2023-09-30T15:23:39;18.20;78.00
9971;DHT22;5026;51.494;11.974;2023-09-30T15:26:06;18.20;78.30
9971;DHT22;5026;51.494;11.974;2023-09-30T15:28:33;18.30;78.50
9971;DHT22;5026;51.494;11.974;2023-09-30T15:31:00;18.20;78.00
9971;DHT22;5026;51.494;11.974;2023-09-30T15:33:29;18.20;77.80
9971;DHT22;5026;51.494;11.974;2023-09-30T15:35:56;18.20;78.10
9971;DHT22;5026;51.494;11.974;2023-09-30T15:38:22;18.10;77.10
9971;DHT22;5026;51.494;11.974;2023-09-30T15:40:51;18.10;77.20
9971;DHT22;5026;51.494;11.974;2023-09-30T15:43:19;18.00;76.90
9971;DHT22;5026;51.494;11.974;2023-09-30T15:45:46;18.10;77.00
9971;DHT22;5026;51.494;11.974;2023-09-30T15:48:13;18.10;77.40
9971;DHT22;5026;51.494;11.974;2023-09-30T15:50:42;18.00;77.70
9971;DHT22;5026;51.494;11.974;2023-09-30T15:53:09;17.90;77.30